Time;durP1;ratioP1;P1;durP2;ratioP2;P2;SDS_P1;SDS_P2;PMS_P1;PMS_P2;Temp;Humidity;BMP_temperature;BMP_pressure;BME280_temperature;BME280_humidity;BME280_pressure;Samples;Min_cycle;Max_cycle;Signal;HPM_P1;HPM_P2
2023/09/26 00:00:41;;;;;;;8.93;6.45;;;17.40;99.90;;;;;;5054948;28;20051;-71
2023/09/26 00:03:07;;;;;;;10.85;6.72;;;17.40;99.90;;;;;;5054489;28;20120;-70
2023/09/26 00:05:33;;;;;;;8.35;6.00;;;17.40;99.90;;;;;;5055050;28;20036;-70
2023/09/26 00:08:03;;;;;;;9.57;6.40;;;17.40;99.90;;;;;;5054218;28;20029;-70
2023/09/26 00:10:29;;;;;;;9.15;6.72;;;17.40;99.90;;;;;;5053390;28;20044;-70
2023/09/26 00:12:55;;;;;;;8.52;6.43;;;17.30;99.90;;;;;;5052739;28;20025;-70
2023/09/26 00:15:21;;;;;;;10.10;6.50;;;17.30;99.90;;;;;;5053365;28;20094;-71
2023/09/26 00:17:46;;;;;;;10.02;6.55;;;17.30;99.90;;;;;;5054173;28;20527;-70
2023/09/26 00:20:17;;;;;;;9.48;6.45;;;17.30;99.90;;;;;;5053352;28;20071;-70
2023/09/26 00:22:43;;;;;;;11.77;7.10;;;17.20;99.90;;;;;;5053951;28;20044;-70
2023/09/26 00:25:10;;;;;;;8.60;5.68;;;17.20;99.90;;;;;;5054598;28;20048;-70
2023/09/26 00:27:36;;;;;;;8.80;5.82;;;17.20;99.90;;;;;;5052496;28;20419;-70
2023/09/26 00:30:02;;;;;;;9.68;6.38;;;17.20;99.90;;;;;;5053080;28;20025;-71
2023/09/26 00:32:30;;;;;;;10.60;6.70;;;17.10;99.90;;;;;;5053666;28;20021;-70
2023/09/26 00:34:55;;;;;;;9.73;6.20;;;17.10;99.90;;;;;;5054320;28;20032;-70
2023/09/26 00:37:21;;;;;;;9.25;6.80;;;17.00;99.90;;;;;;5053694;28;20018;-70
2023/09/26 00:39:47;;;;;;;8.95;6.43;;;17.00;99.90;;;;;;5054228;28;20605;-70
2023/09/26 00:42:13;;;;;;;9.95;6.18;;;16.90;99.90;;;;;;5053801;28;20494;-70
2023/09/26 00:44:38;;;;;;;8.52;6.72;;;16.90;99.90;;;;;;5053991;28;20123;-71
2023/09/26 00:47:05;;;;;;;9.75;6.72;;;16.90;99.90;;;;;;5053887;28;20029;-70
2023/09/26 00:49:31;;;;;;;9.30;6.22;;;16.90;99.90;;;;;;5053698;28;20533;-70
2023/09/26 00:51:59;;;;;;;7.60;5.85;;;16.80;99.90;;;;;;5053335;28;20096;-70
2023/09/26 00:54:26;;;;;;;10.73;6.65;;;16.80;99.90;;;;;;5053931;28;20106;-70
2023/09/26 00:56:52;;;;;;;9.73;7.07;;;16.80;99.90;;;;;;5053451;28;20018;-70
2023/09/26 00:59:19;;;;;;;9.85;6.65;;;16.70;99.90;;;;;;5053392;28;20116;-70
2023/09/26 01:01:48;;;;;;;9.40;6.78;;;16.70;99.90;;;;;;5053457;28;20479;-70
2023/09/26 01:04:15;;;;;;;10.63;6.80;;;16.70;99.90;;;;;;5053776;28;20017;-70
2023/09/26 01:06:41;;;;;;;9.82;6.75;;;16.60;99.90;;;;;;5053085;28;20055;-70
2023/09/26 01:09:09;;;;;;;8.63;6.65;;;16.60;99.90;;;;;;5053574;28;20048;-70
2023/09/26 01:11:36;;;;;;;10.43;6.78;;;16.60;99.90;;;;;;5051605;28;20044;-70
2023/09/26 01:14:02;;;;;;;8.45;6.55;;;16.60;99.90;;;;;;5053774;28;20063;-70
2023/09/26 01:16:27;;;;;;;9.05;6.00;;;16.60;99.90;;;;;;5053108;28;20396;-70
2023/09/26 01:18:53;;;;;;;9.70;6.70;;;16.50;99.90;;;;;;5052136;28;20032;-70
2023/09/26 01:21:19;;;;;;;8.65;6.18;;;16.50;99.90;;;;;;5052953;28;20056;-70
2023/09/26 01:23:57;;;;;;;11.40;6.60;;;16.50;99.90;;;;;;5053078;28;20096;-70
2023/09/26 01:26:23;;;;;;;10.52;6.18;;;16.50;99.90;;;;;;5052986;28;20074;-70
2023/09/26 01:28:49;;;;;;;9.35;6.60;;;16.40;99.90;;;;;;5053204;28;20041;-70
2023/09/26 01:31:15;;;;;;;9.40;6.82;;;16.40;99.90;;;;;;5052712;28;20017;-70
2023/09/26 01:33:41;;;;;;;12.02;6.93;;;16.40;99.90;;;;;;5052870;28;20426;-70
2023/09/26 01:36:07;;;;;;;10.57;6.60;;;16.40;99.90;;;;;;5052931;28;20025;-70
2023/09/26 01:38:32;;;;;;;9.52;6.82;;;16.30;99.90;;;;;;5052713;28;20020;-70
2023/09/26 01:40:58;;;;;;;9.02;6.47;;;16.30;99.90;;;;;;5052998;28;20036;-70
2023/09/26 01:43:25;;;;;;;10.95;7.05;;;16.30;99.90;;;;;;5052731;28;20051;-70
2023/09/26 01:45:51;;;;;;;9.45;6.75;;;16.30;99.90;;;;;;5053074;28;20035;-70
2023/09/26 01:48:17;;;;;;;11.20;7.28;;;16.30;99.90;;;;;;5052154;28;20095;-70
2023/09/26 01:50:43;;;;;;;10.43;6.60;;;16.30;99.90;;;;;;5052861;28;20037;-70
2023/09/26 01:53:13;;;;;;;9.45;6.57;;;16.20;99.90;;;;;;5052269;28;20021;-70
2023/09/26 01:55:39;;;;;;;10.65;6.72;;;16.20;99.90;;;;;;5052770;28;20029;-70
2023/09/26 01:58:05;;;;;;;9.23;6.22;;;16.20;99.90;;;;;;5052258;28;20021;-70
2023/09/26 02:00:30;;;;;;;8.32;6.80;;;16.20;99.90;;;;;;5052757;28;20031;-70
2023/09/26 02:02:57;;;;;;;11.40;6.70;;;16.10;99.90;;;;;;5052104;28;20472;-70
2023/09/26 02:05:23;;;;;;;8.75;6.25;;;16.10;99.90;;;;;;5052670;28;20416;-70
2023/09/26 02:07:50;;;;;;;9.02;6.45;;;16.10;99.90;;;;;;5051809;28;20453;-70
2023/09/26 02:10:17;;;;;;;8.35;6.22;;;16.10;99.90;;;;;;5050961;28;20493;-70
2023/09/26 02:12:45;;;;;;;8.80;6.07;;;16.10;99.90;;;;;;5051334;28;20104;-70
2023/09/26 02:15:12;;;;;;;8.88;6.30;;;16.00;99.90;;;;;;5052616;28;20066;-70
2023/09/26 02:17:38;;;;;;;8.80;6.50;;;16.00;99.90;;;;;;5051967;28;20045;-70
2023/09/26 02:20:15;;;;;;;9.30;6.78;;;16.00;99.90;;;;;;5051153;28;20044;-70
2023/09/26 02:22:45;;;;;;;8.60;6.90;;;16.10;99.90;;;;;;5051718;28;20029;-70
2023/09/26 02:25:12;;;;;;;10.07;6.03;;;16.00;99.90;;;;;;5052331;28;20021;-70
2023/09/26 02:27:39;;;;;;;12.15;7.35;;;16.00;99.90;;;;;;5051631;28;20498;-70
2023/09/26 02:30:06;;;;;;;9.85;6.65;;;16.00;99.90;;;;;;5052249;28;20036;-70
2023/09/26 02:32:32;;;;;;;10.18;6.90;;;15.90;99.90;;;;;;5051478;28;20108;-70
2023/09/26 02:34:58;;;;;;;9.70;6.40;;;15.90;99.90;;;;;;5052125;28;20582;-70
2023/09/26 02:37:24;;;;;;;9.13;6.28;;;15.90;99.90;;;;;;5051614;28;20187;-70
2023/09/26 02:39:49;;;;;;;10.15;7.10;;;15.90;99.90;;;;;;5052001;28;20033;-70
2023/09/26 02:42:15;;;;;;;11.15;6.57;;;15.90;99.90;;;;;;5051353;28;20029;-70
2023/09/26 02:44:41;;;;;;;11.88;6.57;;;15.90;99.90;;;;;;5051885;28;20468;-70
2023/09/26 02:47:06;;;;;;;9.65;6.78;;;15.80;99.90;;;;;;5051276;28;20051;-70
2023/09/26 02:49:32;;;;;;;8.90;6.70;;;15.80;99.90;;;;;;5050295;28;20517;-71
2023/09/26 02:51:58;;;;;;;9.30;6.20;;;15.80;99.90;;;;;;5051293;28;20017;-70
2023/09/26 02:54:25;;;;;;;8.52;6.18;;;15.80;99.90;;;;;;5051918;28;20021;-70
2023/09/26 02:56:51;;;;;;;8.00;5.72;;;15.80;99.90;;;;;;5051381;28;20032;-70
2023/09/26 02:59:17;;;;;;;7.45;6.20;;;15.80;99.90;;;;;;5051864;28;20571;-70
2023/09/26 03:01:42;;;;;;;10.27;6.85;;;15.80;99.90;;;;;;5051296;28;20031;-70
2023/09/26 03:04:08;;;;;;;9.88;6.47;;;15.80;99.90;;;;;;5051226;28;20112;-70
2023/09/26 03:06:34;;;;;;;7.68;6.43;;;15.80;99.90;;;;;;5051584;28;20454;-70
2023/09/26 03:08:59;;;;;;;10.02;6.65;;;15.80;99.90;;;;;;5051665;28;20116;-70
2023/09/26 03:11:25;;;;;;;8.88;6.65;;;15.80;99.90;;;;;;5051431;28;20028;-70
2023/09/26 03:13:51;;;;;;;8.30;6.45;;;15.70;99.90;;;;;;5051413;28;20100;-70
2023/09/26 03:16:18;;;;;;;9.23;6.00;;;15.70;99.90;;;;;;5051674;28;20344;-70
2023/09/26 03:18:44;;;;;;;11.95;6.53;;;15.70;99.90;;;;;;5051138;28;20448;-70
2023/09/26 03:21:11;;;;;;;8.38;6.57;;;15.70;99.90;;;;;;5051732;28;20021;-70
2023/09/26 03:23:37;;;;;;;11.40;6.63;;;15.70;99.90;;;;;;5054411;28;20033;-70
2023/09/26 03:26:10;;;;;;;9.50;6.75;;;15.70;99.90;;;;;;5055867;28;20497;-70
2023/09/26 03:28:36;;;;;;;8.00;6.38;;;15.70;99.90;;;;;;5053726;28;20099;-70
2023/09/26 03:31:05;;;;;;;8.60;6.55;;;15.70;99.90;;;;;;5055580;28;20052;-70
2023/09/26 03:33:32;;;;;;;9.98;7.60;;;15.70;99.90;;;;;;5054821;28;20032;-70
2023/09/26 03:35:59;;;;;;;9.43;7.20;;;15.60;99.90;;;;;;5055427;28;20536;-70
2023/09/26 03:38:24;;;;;;;9.95;7.00;;;15.60;99.90;;;;;;5054841;28;20041;-70
2023/09/26 03:40:57;;;;;;;9.02;7.30;;;15.60;99.90;;;;;;5053969;28;20071;-70
2023/09/26 03:43:26;;;;;;;10.32;6.60;;;15.60;99.90;;;;;;5054448;28;20032;-70
2023/09/26 03:46:01;;;;;;;9.15;6.50;;;15.60;99.90;;;;;;5055218;28;20021;-70
2023/09/26 03:48:27;;;;;;;8.07;6.50;;;15.50;99.90;;;;;;5054426;28;20091;-70
2023/09/26 03:50:53;;;;;;;10.35;7.15;;;15.50;99.90;;;;;;5055121;28;20025;-70
2023/09/26 03:53:18;;;;;;;10.77;6.95;;;15.50;99.90;;;;;;5053283;28;20029;-70
2023/09/26 03:55:52;;;;;;;8.15;6.90;;;15.50;99.90;;;;;;5055198;28;20106;-70
2023/09/26 03:58:17;;;;;;;10.27;6.95;;;15.40;99.90;;;;;;5054541;28;20028;-70
2023/09/26 04:00:43;;;;;;;9.00;6.70;;;15.40;99.90;;;;;;5055008;28;20021;-70
2023/09/26 04:03:09;;;;;;;11.13;7.05;;;15.40;99.90;;;;;;5054539;28;20028;-70
2023/09/26 04:05:34;;;;;;;8.40;6.38;;;15.40;99.90;;;;;;5055085;28;20495;-70
2023/09/26 04:08:00;;;;;;;9.45;6.57;;;15.40;99.90;;;;;;5054158;28;20112;-70
2023/09/26 04:10:26;;;;;;;9.00;6.95;;;15.40;99.90;;;;;;5054752;28;20021;-70
2023/09/26 04:12:51;;;;;;;9.82;7.10;;;15.40;99.90;;;;;;5054240;28;20027;-70
2023/09/26 04:15:17;;;;;;;10.60;7.40;;;15.30;99.90;;;;;;5054603;28;20017;-70
2023/09/26 04:17:43;;;;;;;10.15;7.03;;;15.30;99.90;;;;;;5054230;28;20023;-70
2023/09/26 04:20:11;;;;;;;10.30;7.10;;;15.30;99.90;;;;;;5054871;28;20642;-70
2023/09/26 04:22:37;;;;;;;9.30;7.13;;;15.30;99.90;;;;;;5054167;28;20032;-70
2023/09/26 04:25:03;;;;;;;9.73;6.90;;;15.30;99.90;;;;;;5054542;28;20128;-70
2023/09/26 04:27:29;;;;;;;9.25;7.13;;;15.30;99.90;;;;;;5053932;28;20033;-70
2023/09/26 04:29:54;;;;;;;10.50;6.50;;;15.30;99.90;;;;;;5054266;28;20029;-70
2023/09/26 04:32:20;;;;;;;10.15;7.20;;;15.30;99.90;;;;;;5053722;28;20021;-70
2023/09/26 04:34:46;;;;;;;11.90;7.63;;;15.20;99.90;;;;;;5053732;28;20092;-70
2023/09/26 04:37:11;;;;;;;9.20;6.15;;;15.20;99.90;;;;;;5053694;28;20333;-70
2023/09/26 04:39:37;;;;;;;10.73;6.85;;;15.20;99.90;;;;;;5052966;28;20036;-70
2023/09/26 04:42:04;;;;;;;9.75;6.35;;;15.10;99.90;;;;;;5053856;28;20021;-70
2023/09/26 04:44:29;;;;;;;10.38;6.60;;;15.10;99.90;;;;;;5054010;28;20118;-70
2023/09/26 04:46:55;;;;;;;10.00;7.28;;;15.10;99.90;;;;;;5052775;28;20017;-70
2023/09/26 04:49:21;;;;;;;9.27;6.13;;;15.10;99.90;;;;;;5053978;28;20056;-70
2023/09/26 04:51:47;;;;;;;10.63;7.13;;;15.10;99.90;;;;;;5053928;28;20017;-71
2023/09/26 04:54:12;;;;;;;13.27;7.43;;;15.10;99.90;;;;;;5052776;28;20040;-70
2023/09/26 04:56:38;;;;;;;13.25;7.15;;;15.10;99.90;;;;;;5054003;28;20059;-71
2023/09/26 04:59:04;;;;;;;10.98;7.28;;;15.10;99.90;;;;;;5052530;28;20020;-71
2023/09/26 05:01:30;;;;;;;9.98;6.93;;;15.10;99.90;;;;;;5054190;28;20108;-71
2023/09/26 05:03:55;;;;;;;10.95;7.15;;;15.10;99.90;;;;;;5053385;28;20033;-69
2023/09/26 05:06:21;;;;;;;9.52;7.07;;;15.10;99.90;;;;;;5053879;28;20021;-70
2023/09/26 05:08:47;;;;;;;8.63;6.80;;;15.10;99.90;;;;;;5051817;28;20021;-70
2023/09/26 05:11:14;;;;;;;16.05;7.13;;;15.10;99.90;;;;;;5053673;28;20021;-71
2023/09/26 05:13:40;;;;;;;8.57;6.60;;;15.10;99.90;;;;;;5052961;28;20032;-70
2023/09/26 05:16:09;;;;;;;10.18;7.53;;;15.00;99.90;;;;;;5053768;28;20410;-70
2023/09/26 05:18:35;;;;;;;13.35;7.65;;;15.00;99.90;;;;;;5051690;28;20044;-71
2023/09/26 05:21:06;;;;;;;16.10;7.63;;;15.00;99.90;;;;;;5053824;28;20048;-70
2023/09/26 05:23:31;;;;;;;9.48;7.75;;;15.00;99.90;;;;;;5053007;28;20067;-70
2023/09/26 05:26:13;;;;;;;11.52;6.72;;;15.00;99.90;;;;;;5053510;28;20021;-69
2023/09/26 05:28:39;;;;;;;11.43;6.78;;;15.00;99.90;;;;;;5053057;28;20037;-69
2023/09/26 05:31:06;;;;;;;9.70;7.05;;;14.90;99.90;;;;;;5053303;28;20024;-69
2023/09/26 05:33:32;;;;;;;9.57;7.43;;;14.90;99.90;;;;;;5052713;28;20025;-69
2023/09/26 05:35:58;;;;;;;11.02;7.60;;;14.90;99.90;;;;;;5053802;28;20024;-69
2023/09/26 05:38:26;;;;;;;13.73;7.82;;;14.90;99.90;;;;;;5052842;28;20151;-70
2023/09/26 05:40:52;;;;;;;13.57;8.02;;;14.90;99.90;;;;;;5053293;28;20483;-70
2023/09/26 05:43:18;;;;;;;12.90;7.63;;;15.00;99.90;;;;;;5052738;28;20031;-69
2023/09/26 05:45:47;;;;;;;13.23;7.63;;;14.90;99.90;;;;;;5053176;28;20458;-70
2023/09/26 05:48:13;;;;;;;13.88;6.78;;;14.90;99.90;;;;;;5052132;28;20052;-69
2023/09/26 05:50:39;;;;;;;14.75;7.18;;;14.90;99.90;;;;;;5053016;28;20028;-70
2023/09/26 05:53:04;;;;;;;12.32;7.53;;;14.90;99.90;;;;;;5052411;28;20024;-70
2023/09/26 05:55:31;;;;;;;13.13;7.32;;;14.90;99.90;;;;;;5052941;28;20048;-70
2023/09/26 05:57:57;;;;;;;11.85;7.47;;;14.90;99.90;;;;;;5052251;28;20013;-70
2023/09/26 06:00:23;;;;;;;14.25;7.40;;;14.90;99.90;;;;;;5053116;28;20021;-69
2023/09/26 06:02:51;;;;;;;12.07;6.68;;;15.00;99.90;;;;;;5050886;28;20027;-70
2023/09/26 06:05:17;;;;;;;12.38;6.05;;;14.90;99.90;;;;;;5052834;28;20055;-70
2023/09/26 06:07:43;;;;;;;16.50;8.32;;;15.00;99.90;;;;;;5052145;28;20525;-69
2023/09/26 06:10:12;;;;;;;11.10;6.97;;;15.00;99.90;;;;;;5052549;28;20033;-70
2023/09/26 06:12:38;;;;;;;12.68;8.23;;;15.00;99.90;;;;;;5052000;28;20020;-69
2023/09/26 06:15:11;;;;;;;10.43;7.43;;;15.00;99.90;;;;;;5051247;28;20017;-70
2023/09/26 06:17:37;;;;;;;15.85;7.20;;;14.90;99.90;;;;;;5052088;28;20098;-70
2023/09/26 06:20:08;;;;;;;13.65;7.63;;;15.00;99.90;;;;;;5052512;28;20495;-69
2023/09/26 06:22:34;;;;;;;12.07;7.82;;;15.00;99.90;;;;;;5050762;28;20021;-70
2023/09/26 06:25:02;;;;;;;11.65;8.40;;;15.00;99.90;;;;;;5051160;28;20400;-70
2023/09/26 06:27:27;;;;;;;12.23;8.15;;;15.00;99.90;;;;;;5052160;28;20036;-70
2023/09/26 06:29:53;;;;;;;13.52;7.97;;;15.00;99.90;;;;;;5052417;28;20017;-69
2023/09/26 06:32:19;;;;;;;10.52;5.97;;;15.00;99.90;;;;;;5051978;28;20047;-70
2023/09/26 06:34:47;;;;;;;10.98;7.88;;;15.10;99.90;;;;;;5052003;28;20442;-69
2023/09/26 06:37:12;;;;;;;12.88;8.07;;;15.10;99.90;;;;;;5051706;28;20013;-70
2023/09/26 06:39:38;;;;;;;12.13;7.43;;;15.10;99.90;;;;;;5051950;28;20075;-70
2023/09/26 06:42:04;;;;;;;13.60;8.20;;;15.10;99.90;;;;;;5051908;28;20124;-70
2023/09/26 06:44:29;;;;;;;10.43;8.05;;;15.10;99.90;;;;;;5051693;28;20025;-70
2023/09/26 06:46:55;;;;;;;11.80;7.65;;;15.10;99.90;;;;;;5052185;28;20021;-69
2023/09/26 06:49:21;;;;;;;12.63;8.23;;;15.20;99.90;;;;;;5051254;28;20128;-70
2023/09/26 06:51:46;;;;;;;14.35;7.90;;;15.20;99.90;;;;;;5051922;28;20056;-69
2023/09/26 06:54:13;;;;;;;11.40;7.32;;;15.20;99.90;;;;;;5051335;28;20074;-70
2023/09/26 06:56:38;;;;;;;12.57;8.02;;;15.20;99.90;;;;;;5051494;28;20021;-69
2023/09/26 06:59:05;;;;;;;12.23;7.40;;;15.20;99.90;;;;;;5051431;28;20442;-70
2023/09/26 07:01:39;;;;;;;10.77;8.25;;;15.30;99.90;;;;;;5052021;28;20036;-71
2023/09/26 07:04:04;;;;;;;13.20;7.90;;;15.30;99.90;;;;;;5051365;28;20028;-70
2023/09/26 07:06:31;;;;;;;10.75;8.18;;;15.30;99.90;;;;;;5051671;28;20029;-70
2023/09/26 07:08:58;;;;;;;12.43;7.53;;;15.30;99.90;;;;;;5049727;28;20530;-70
2023/09/26 07:11:24;;;;;;;12.70;8.57;;;15.40;99.90;;;;;;5051950;28;20080;-69
2023/09/26 07:13:50;;;;;;;9.07;7.18;;;15.40;99.90;;;;;;5051299;28;20032;-69
2023/09/26 07:16:16;;;;;;;10.18;7.05;;;15.40;99.90;;;;;;5051933;28;20410;-69
2023/09/26 07:18:41;;;;;;;12.18;7.90;;;15.40;99.90;;;;;;5051049;28;20096;-69
2023/09/26 07:21:08;;;;;;;10.75;7.25;;;15.50;99.90;;;;;;5051714;28;20021;-69
2023/09/26 07:23:42;;;;;;;10.18;6.78;;;15.50;99.90;;;;;;5049555;28;20025;-69
2023/09/26 07:26:14;;;;;;;10.40;7.93;;;15.50;99.90;;;;;;5051662;28;20025;-69
2023/09/26 07:28:40;;;;;;;12.57;7.88;;;15.60;99.90;;;;;;5049864;28;20029;-70
2023/09/26 07:31:08;;;;;;;7.88;6.18;;;15.60;99.90;;;;;;5051726;28;20029;-70
2023/09/26 07:33:35;;;;;;;11.07;7.50;;;15.60;99.90;;;;;;5049513;28;20395;-69
2023/09/26 07:36:01;;;;;;;11.20;7.60;;;15.70;99.90;;;;;;5051424;28;20071;-70
2023/09/26 07:38:26;;;;;;;8.20;6.57;;;15.70;99.90;;;;;;5051097;28;20029;-70
2023/09/26 07:40:52;;;;;;;11.05;6.65;;;15.70;99.90;;;;;;5050239;28;20043;-70
2023/09/26 07:43:18;;;;;;;8.95;5.70;;;15.70;99.90;;;;;;5050930;28;20506;-70
2023/09/26 07:45:44;;;;;;;9.20;7.13;;;15.70;99.90;;;;;;5051330;28;20099;-70
2023/09/26 07:48:10;;;;;;;10.02;7.15;;;15.70;99.90;;;;;;5050234;28;20021;-70
2023/09/26 07:50:35;;;;;;;12.38;6.80;;;15.70;99.90;;;;;;5051321;28;20029;-70
2023/09/26 07:53:04;;;;;;;10.90;6.65;;;15.80;99.90;;;;;;5051165;28;20482;-70
2023/09/26 07:55:29;;;;;;;11.27;7.53;;;15.80;99.90;;;;;;5051316;28;20029;-70
2023/09/26 07:57:55;;;;;;;11.77;7.07;;;15.90;99.90;;;;;;5050603;28;20021;-69
2023/09/26 08:00:21;;;;;;;7.70;5.53;;;15.90;99.90;;;;;;5051174;28;20160;-69
2023/09/26 08:02:46;;;;;;;7.60;5.60;;;15.90;99.90;;;;;;5050745;28;20056;-69
2023/09/26 08:05:12;;;;;;;10.57;6.88;;;16.00;99.90;;;;;;5051004;28;20021;-69
2023/09/26 08:07:42;;;;;;;8.40;5.80;;;16.00;99.90;;;;;;5050842;28;20028;-70
2023/09/26 08:10:08;;;;;;;10.30;6.35;;;16.00;99.90;;;;;;5051789;28;20060;-69
2023/09/26 08:12:36;;;;;;;10.50;7.07;;;16.00;99.90;;;;;;5054402;28;20096;-69
2023/09/26 08:15:02;;;;;;;12.05;7.28;;;16.00;99.90;;;;;;5054590;28;20033;-69
2023/09/26 08:17:27;;;;;;;9.25;7.15;;;16.10;99.90;;;;;;5054476;28;20554;-69
2023/09/26 08:19:53;;;;;;;12.13;7.03;;;16.10;99.90;;;;;;5054320;28;20120;-70
2023/09/26 08:22:19;;;;;;;10.40;6.18;;;16.10;99.90;;;;;;5054543;28;20055;-69
2023/09/26 08:24:44;;;;;;;7.57;5.10;;;16.20;99.90;;;;;;5054395;28;20053;-70
2023/09/26 08:27:11;;;;;;;9.13;6.15;;;16.20;99.90;;;;;;5054809;28;20433;-70
2023/09/26 08:29:36;;;;;;;8.70;5.78;;;16.20;99.90;;;;;;5052652;28;20021;-70
2023/09/26 08:32:02;;;;;;;8.15;6.03;;;16.30;99.90;;;;;;5054570;28;20471;-69
2023/09/26 08:34:28;;;;;;;7.88;5.45;;;16.30;99.90;;;;;;5053725;28;20484;-69
2023/09/26 08:36:54;;;;;;;7.40;5.35;;;16.40;99.90;;;;;;5054559;28;20040;-69
2023/09/26 08:39:20;;;;;;;10.02;6.18;;;16.40;99.90;;;;;;5052357;28;20485;-68
2023/09/26 08:41:46;;;;;;;8.00;5.22;;;16.50;99.90;;;;;;5054289;28;20029;-69
2023/09/26 08:44:12;;;;;;;9.30;5.95;;;16.50;99.90;;;;;;5053507;28;20017;-70
2023/09/26 08:46:39;;;;;;;9.73;4.97;;;16.60;99.90;;;;;;5054135;28;20017;-69
2023/09/26 08:49:05;;;;;;;11.63;5.28;;;16.70;99.90;;;;;;5053108;28;20159;-69
2023/09/26 08:51:34;;;;;;;9.55;5.82;;;16.70;99.90;;;;;;5054009;28;20029;-69
2023/09/26 08:54:00;;;;;;;7.72;5.47;;;16.80;99.90;;;;;;5053433;28;20029;-69
2023/09/26 08:56:25;;;;;;;9.60;4.55;;;16.80;99.90;;;;;;5054146;28;20017;-70
2023/09/26 08:58:54;;;;;;;10.35;5.68;;;16.80;99.90;;;;;;5053462;28;20039;-70
2023/09/26 09:01:20;;;;;;;9.55;5.13;;;16.80;99.90;;;;;;5054355;28;20051;-69
2023/09/26 09:03:46;;;;;;;6.28;4.93;;;16.90;99.90;;;;;;5053104;28;20025;-70
2023/09/26 09:06:13;;;;;;;7.30;5.53;;;17.00;99.90;;;;;;5054093;28;20021;-69
2023/09/26 09:08:39;;;;;;;7.55;4.72;;;17.00;99.90;;;;;;5051938;28;20052;-69
2023/09/26 09:11:04;;;;;;;8.45;5.60;;;17.10;99.90;;;;;;5053680;28;20440;-69
2023/09/26 09:13:33;;;;;;;9.02;5.50;;;17.20;99.90;;;;;;5052840;28;20032;-69
2023/09/26 09:16:09;;;;;;;8.32;5.32;;;17.30;99.90;;;;;;5053621;28;20487;-69
2023/09/26 09:18:35;;;;;;;7.55;4.90;;;17.30;99.90;;;;;;5052888;28;20066;-69
2023/09/26 09:21:18;;;;;;;8.43;4.78;;;17.30;99.90;;;;;;5053178;28;20025;-70
2023/09/26 09:23:49;;;;;;;6.97;5.07;;;17.40;99.90;;;;;;5051651;28;20427;-69
2023/09/26 09:26:15;;;;;;;8.45;5.38;;;17.40;99.90;;;;;;5053478;28;20028;-69
2023/09/26 09:28:40;;;;;;;8.05;4.60;;;17.40;99.90;;;;;;5051498;28;20029;-70
2023/09/26 09:31:06;;;;;;;9.60;5.70;;;17.50;99.90;;;;;;5053292;28;20438;-69
2023/09/26 09:33:32;;;;;;;8.68;5.35;;;17.60;99.90;;;;;;5052794;28;20025;-69
2023/09/26 09:35:58;;;;;;;5.72;4.38;;;17.70;99.90;;;;;;5053531;28;20013;-70
2023/09/26 09:38:24;;;;;;;7.40;4.53;;;17.70;99.90;;;;;;5051331;28;20016;-69
2023/09/26 09:40:51;;;;;;;8.93;5.10;;;17.80;99.90;;;;;;5053298;28;20549;-70
2023/09/26 09:43:16;;;;;;;8.73;5.40;;;17.90;99.90;;;;;;5052477;28;20035;-70
2023/09/26 09:45:43;;;;;;;6.60;4.85;;;18.00;99.90;;;;;;5053011;28;20021;-69
2023/09/26 09:48:09;;;;;;;6.40;4.32;;;18.10;99.90;;;;;;5052424;28;20028;-70
2023/09/26 09:50:40;;;;;;;9.57;5.10;;;18.20;99.90;;;;;;5051561;28;20021;-69
2023/09/26 09:53:08;;;;;;;;;;;18.20;99.90;;;;;;5053091;28;20029;-70
2023/09/26 09:55:39;;;;;;;8.57;4.78;;;18.40;99.90;;;;;;5051506;28;19904;-70
2023/09/26 09:58:09;;;;;;;7.40;5.07;;;18.40;99.90;;;;;;5051070;28;20025;-70
2023/09/26 10:00:40;;;;;;;7.68;5.18;;;18.50;99.90;;;;;;5052694;28;20036;-70
2023/09/26 10:03:06;;;;;;;8.38;5.30;;;18.60;99.90;;;;;;5052531;28;20029;-70
2023/09/26 10:05:34;;;;;;;7.30;4.90;;;18.70;99.90;;;;;;5051172;28;20120;-70
2023/09/26 10:08:02;;;;;;;8.02;5.00;;;18.70;99.90;;;;;;5052290;28;20040;-70
2023/09/26 10:10:28;;;;;;;8.10;5.22;;;18.80;99.90;;;;;;5052252;28;20060;-69
2023/09/26 10:12:54;;;;;;;7.90;4.88;;;18.90;99.90;;;;;;5052271;28;20063;-69
2023/09/26 10:15:21;;;;;;;6.55;4.60;;;18.90;99.90;;;;;;5052278;28;20057;-70
2023/09/26 10:17:51;;;;;;;6.75;4.63;;;19.00;99.90;;;;;;5052166;28;20044;-69
2023/09/26 10:20:17;;;;;;;6.90;4.53;;;19.10;99.90;;;;;;5050938;28;20486;-69
2023/09/26 10:22:44;;;;;;;7.43;5.00;;;19.20;99.90;;;;;;5052188;28;20040;-70
2023/09/26 10:25:22;;;;;;;12.88;5.60;;;19.30;99.90;;;;;;5051977;28;20035;-69
2023/09/26 10:27:47;;;;;;;7.30;5.00;;;19.40;99.90;;;;;;5052168;28;20032;-70
2023/09/26 10:30:14;;;;;;;6.20;4.60;;;19.40;99.90;;;;;;5052119;28;20391;-70
2023/09/26 10:32:44;;;;;;;6.05;4.75;;;19.50;99.90;;;;;;5051634;28;20104;-70
2023/09/26 10:35:15;;;;;;;7.40;4.63;;;19.50;99.90;;;;;;5051602;28;20029;-69
2023/09/26 10:38:00;;;;;;;8.23;4.75;;;19.60;99.90;;;;;;5052125;28;20024;-69
2023/09/26 10:40:26;;;;;;;7.22;4.32;;;19.60;99.90;;;;;;5052167;28;20104;-70
2023/09/26 10:42:52;;;;;;;9.38;4.18;;;19.70;99.90;;;;;;5051813;28;20045;-69
2023/09/26 10:45:18;;;;;;;7.18;4.32;;;19.70;99.90;;;;;;5051730;28;20111;-70
2023/09/26 10:47:44;;;;;;;12.10;4.68;;;19.80;99.90;;;;;;5051949;28;20144;-70
2023/09/26 10:50:14;;;;;;;6.60;4.57;;;19.90;99.90;;;;;;5051134;28;20127;-70
2023/09/26 10:52:46;;;;;;;7.03;3.80;;;20.00;99.90;;;;;;5051930;28;20048;-70
2023/09/26 10:55:17;;;;;;;8.10;3.83;;;20.00;99.90;;;;;;5051290;28;20076;-70
2023/09/26 10:57:46;;;;;;;5.50;3.70;;;20.00;99.90;;;;;;5051867;28;20021;-70
2023/09/26 11:00:14;;;;;;;6.03;3.17;;;20.10;99.90;;;;;;5051251;28;20024;-69
2023/09/26 11:02:41;;;;;;;10.73;4.00;;;20.10;99.90;;;;;;5051788;28;20032;-70
2023/09/26 11:05:08;;;;;;;5.63;3.47;;;20.20;99.90;;;;;;5051051;28;20502;-70
2023/09/26 11:07:35;;;;;;;7.05;3.40;;;20.20;99.90;;;;;;5051979;28;20124;-70
2023/09/26 11:10:03;;;;;;;7.88;3.72;;;20.20;99.90;;;;;;5049586;28;20115;-70
2023/09/26 11:12:30;;;;;;;6.18;3.33;;;20.30;99.90;;;;;;5050433;28;20028;-70
2023/09/26 11:14:55;;;;;;;5.25;3.38;;;20.40;99.90;;;;;;5051506;28;20024;-70
2023/09/26 11:17:23;;;;;;;6.07;3.65;;;20.40;99.90;;;;;;5051655;28;20387;-70
2023/09/26 11:19:51;;;;;;;6.13;3.25;;;20.50;99.90;;;;;;5051025;28;20032;-70
2023/09/26 11:22:16;;;;;;;6.35;3.35;;;20.60;99.90;;;;;;5050421;28;20021;-70
2023/09/26 11:24:42;;;;;;;7.03;3.47;;;20.70;99.90;;;;;;5050997;28;20036;-70
2023/09/26 11:27:11;;;;;;;6.97;3.55;;;20.80;99.90;;;;;;5051663;28;20024;-70
2023/09/26 11:29:37;;;;;;;7.53;3.55;;;20.90;99.90;;;;;;5049656;28;20021;-70
2023/09/26 11:32:04;;;;;;;7.72;4.00;;;21.00;99.90;;;;;;5051447;28;20025;-70
2023/09/26 11:34:30;;;;;;;8.02;3.95;;;21.00;99.90;;;;;;5049543;28;20025;-70
2023/09/26 11:36:58;;;;;;;6.57;3.58;;;21.10;99.90;;;;;;5051545;28;20431;-70
2023/09/26 11:39:24;;;;;;;5.88;3.63;;;21.10;99.90;;;;;;5051077;28;20039;-69
2023/09/26 11:42:06;;;;;;;5.95;4.00;;;21.20;99.90;;;;;;5051589;28;20454;-70
2023/09/26 11:44:31;;;;;;;6.55;3.83;;;21.20;99.90;;;;;;5053587;28;20035;-70
2023/09/26 11:46:58;;;;;;;6.68;3.75;;;21.30;99.90;;;;;;5055316;28;20029;-70
2023/09/26 11:49:24;;;;;;;7.35;3.65;;;21.30;99.90;;;;;;5054472;28;20422;-70
2023/09/26 11:51:51;;;;;;;8.07;3.40;;;21.30;99.90;;;;;;5054031;28;20029;-69
2023/09/26 11:54:17;;;;;;;6.28;3.75;;;21.30;99.90;;;;;;5053359;28;20028;-70
2023/09/26 11:56:44;;;;;;;6.35;3.47;;;21.30;99.90;;;;;;5055209;28;20021;-70
2023/09/26 11:59:14;;;;;;;7.43;3.60;;;21.30;99.90;;;;;;5054523;28;20025;-70
2023/09/26 12:01:43;;;;;;;5.45;3.50;;;21.40;99.90;;;;;;5053756;28;20036;-70
2023/09/26 12:04:12;;;;;;;7.50;3.63;;;21.40;99.90;;;;;;5054517;28;20506;-70
2023/09/26 12:06:41;;;;;;;9.80;3.60;;;21.40;99.90;;;;;;5054926;28;20132;-70
2023/09/26 12:09:11;;;;;;;7.32;4.00;;;21.40;99.90;;;;;;5054248;28;20376;-70
2023/09/26 12:11:37;;;;;;;7.30;3.58;;;21.40;99.90;;;;;;5053551;28;20049;-70
2023/09/26 12:14:02;;;;;;;6.43;3.95;;;21.50;99.90;;;;;;5054113;28;20059;-70
2023/09/26 12:16:29;;;;;;;4.75;2.90;;;21.50;99.90;;;;;;5055005;28;20024;-70
2023/09/26 12:18:55;;;;;;;7.22;3.20;;;21.50;99.90;;;;;;5054283;28;20024;-70
2023/09/26 12:21:21;;;;;;;5.65;3.35;;;21.50;99.90;;;;;;5053471;28;20403;-70
2023/09/26 12:23:47;;;;;;;6.47;4.00;;;21.50;99.90;;;;;;5054025;28;20024;-70
2023/09/26 12:26:12;;;;;;;9.10;4.05;;;21.60;99.90;;;;;;5054618;28;20040;-70
2023/09/26 12:28:38;;;;;;;6.15;3.75;;;21.60;99.90;;;;;;5054168;28;20021;-70
2023/09/26 12:31:04;;;;;;;8.80;3.97;;;21.70;99.90;;;;;;5054273;28;20036;-70
2023/09/26 12:33:29;;;;;;;7.25;4.25;;;21.70;99.90;;;;;;5054012;28;20025;-70
2023/09/26 12:35:56;;;;;;;8.63;4.32;;;21.80;99.90;;;;;;5054620;28;20017;-70
2023/09/26 12:38:22;;;;;;;5.30;3.80;;;21.80;99.90;;;;;;5054002;28;20225;-70
2023/09/26 12:40:48;;;;;;;6.90;4.50;;;21.80;99.90;;;;;;5054156;28;20584;-70